| time (UTC) | temp F | wind direction | speed MPH | gust MPH | rain 1hr in | rain 24hr in | rain mn in | humidity % | barometer mb |
| 20260510141527 | 72 | 277 | 6.0 | 9.0 | 0.00 | 0.00 | 0.00 | 40 | 988.0 |
| 20260510140022 | 70 | 265 | 2.0 | 8.0 | 0.00 | 0.00 | 0.00 | 46 | 987.5 |
| 20260510134519 | 67 | 265 | 3.0 | 6.0 | 0.00 | 0.00 | 0.00 | 54 | 987.5 |
| 20260510133030 | 65 | 210 | 2.0 | 6.0 | 0.00 | 0.00 | 0.00 | 56 | 987.1 |
| 20260510131528 | 64 | 132 | 2.0 | 6.0 | 0.00 | 0.00 | 0.00 | 58 | 986.7 |
| 20260510130021 | 63 | 164 | 6.0 | 9.0 | 0.00 | 0.00 | 0.00 | 59 | 986.5 |
| 20260510124520 | 62 | 169 | 7.0 | 10.0 | 0.00 | 0.00 | 0.00 | 60 | 986.1 |
| 20260510123022 | 62 | 156 | 8.0 | 14.0 | 0.00 | 0.00 | 0.00 | 60 | 986.0 |
| 20260510121518 | 61 | 154 | 9.0 | 13.0 | 0.00 | 0.00 | 0.00 | 58 | 985.8 |
| 20260510120017 | 61 | 157 | 8.0 | 12.0 | 0.00 | 0.00 | 0.00 | 57 | 985.8 |
| 20260510114514 | 60 | 144 | 9.0 | 12.0 | 0.00 | 0.00 | 0.00 | 55 | 985.6 |
| 20260510113004 | 61 | 138 | 8.0 | 9.0 | 0.00 | 0.00 | 0.00 | 51 | 985.6 |
| 20260510111504 | 61 | 98 | 3.0 | 6.0 | 0.00 | 0.00 | 0.00 | 48 | 985.8 |
| 20260510110007 | 62 | 144 | 7.0 | 10.0 | 0.00 | 0.00 | 0.00 | 47 | 985.5 |
| 20260510104613 | 61 | 144 | 7.0 | 9.0 | 0.00 | 0.00 | 0.00 | 46 | 985.5 |
| 20260510104500 | 61 | 139 | 8.0 | 9.0 | 0.00 | 0.00 | 0.00 | 46 | 985.5 |
| 20260510103055 | 62 | 147 | 9.0 | 10.0 | 0.00 | 0.00 | 0.00 | 45 | 985.4 |
| 20260510101601 | 63 | 153 | 9.0 | 10.0 | 0.00 | 0.00 | 0.00 | 43 | 985.2 |
| 20260510100056 | 63 | 156 | 3.0 | 10.0 | 0.00 | 0.00 | 0.00 | 42 | 985.3 |
| 20260510094605 | 65 | 173 | 5.0 | 9.0 | 0.00 | 0.00 | 0.00 | 40 | 985.1 |
| 20260510093004 | 64 | 153 | 5.0 | 7.0 | 0.00 | 0.00 | 0.00 | 40 | 985.1 |
| 20260510091501 | 64 | 151 | 8.0 | 11.0 | 0.00 | 0.00 | 0.00 | 40 | 985.2 |
| 20260510090002 | 64 | 149 | 10.0 | 12.0 | 0.00 | 0.00 | 0.00 | 40 | 985.2 |
| 20260510084614 | 64 | 151 | 9.0 | 11.0 | 0.00 | 0.00 | 0.00 | 39 | 985.3 |
| 20260510083111 | 65 | 136 | 10.0 | 12.0 | 0.00 | 0.00 | 0.00 | 37 | 985.1 |
| 20260510081608 | 67 | 147 | 9.0 | 12.0 | 0.00 | 0.00 | 0.00 | 34 | 985.2 |
| 20260510080148 | 68 | 144 | 12.0 | 15.0 | 0.00 | 0.00 | 0.00 | 34 | 985.2 |
| 20260510074546 | 68 | 134 | 12.0 | 14.0 | 0.00 | 0.00 | 0.00 | 34 | 985.5 |
| 20260510073059 | 69 | 137 | 11.0 | 13.0 | 0.00 | 0.00 | 0.00 | 32 | 985.6 |
| 20260510071601 | 70 | 144 | 10.0 | 15.0 | 0.00 | 0.00 | 0.00 | 31 | 985.7 |
| 20260510070058 | 70 | 165 | 8.0 | 16.0 | 0.00 | 0.00 | 0.00 | 30 | 985.8 |
| 20260510064603 | 71 | 159 | 12.0 | 17.0 | 0.00 | 0.00 | 0.00 | 30 | 985.9 |
| 20260510063002 | 72 | 153 | 9.0 | 12.0 | 0.00 | 0.00 | 0.00 | 28 | 986.1 |
| 20260510061505 | 72 | 164 | 8.0 | 12.0 | 0.00 | 0.00 | 0.00 | 28 | 986.2 |
| 20260510060100 | 73 | 189 | 7.0 | 11.0 | 0.00 | 0.00 | 0.00 | 26 | 986.2 |
| 20260510054602 | 74 | 194 | 9.0 | 13.0 | 0.00 | 0.00 | 0.00 | 26 | 986.2 |
| 20260510053001 | 74 | 156 | 10.0 | 14.0 | 0.00 | 0.00 | 0.00 | 25 | 986.3 |
| 20260510051600 | 76 | 162 | 13.0 | 19.0 | 0.00 | 0.00 | 0.00 | 23 | 986.2 |
| 20260510050058 | 73 | 169 | 8.0 | 13.0 | 0.00 | 0.00 | 0.00 | 25 | 986.4 |
| 20260510044558 | 73 | 161 | 6.0 | 14.0 | 0.00 | 0.00 | 0.00 | 24 | 986.3 |
| 20260510043110 | 74 | 150 | 10.0 | 17.0 | 0.00 | 0.00 | 0.00 | 22 | 986.1 |
| 20260510041555 | 76 | 157 | 14.0 | 20.0 | 0.00 | 0.00 | 0.00 | 20 | 986.0 |
| 20260510040105 | 77 | 157 | 14.0 | 18.0 | 0.00 | 0.00 | 0.00 | 19 | 985.8 |
| 20260510034600 | 78 | 161 | 13.0 | 18.0 | 0.00 | 0.00 | 0.00 | 19 | 985.6 |
| 20260510033051 | 77 | 151 | 15.0 | 18.0 | 0.00 | 0.00 | 0.00 | 19 | 985.5 |
| 20260510031600 | 77 | 159 | 12.0 | 16.0 | 0.00 | 0.00 | 0.00 | 19 | 985.5 |
| 20260510030049 | 78 | 159 | 11.0 | 14.0 | 0.00 | 0.00 | 0.00 | 18 | 985.4 |
| 20260510024549 | 79 | 162 | 9.0 | 13.0 | 0.00 | 0.00 | 0.00 | 18 | 985.2 |
| 20260510023100 | 80 | 171 | 8.0 | 12.0 | 0.00 | 0.00 | 0.00 | 16 | 985.0 |
| 20260510021558 | 82 | 177 | 8.0 | 11.0 | 0.00 | 0.00 | 0.00 | 16 | 984.8 |
| 20260510020057 | 82 | 167 | 7.0 | 11.0 | 0.00 | 0.00 | 0.00 | 16 | 984.6 |
| 20260510014657 | 84 | 200 | 8.0 | 13.0 | 0.00 | 0.00 | 0.00 | 15 | 984.5 |
| 20260510013056 | 85 | 178 | 6.0 | 9.0 | 0.00 | 0.00 | 0.00 | 14 | 984.3 |
| 20260510011548 | 87 | 196 | 7.0 | 10.0 | 0.00 | 0.00 | 0.00 | 13 | 984.2 |
| 20260510010045 | 89 | 190 | 7.0 | 11.0 | 0.00 | 0.00 | 0.00 | 12 | 984.2 |
| 20260510004544 | 89 | 196 | 9.0 | 13.0 | 0.00 | 0.00 | 0.00 | 12 | 984.2 |
| 20260510003032 | 90 | 205 | 9.0 | 15.0 | 0.00 | 0.00 | 0.00 | 11 | 984.2 |
| 20260510001531 | 90 | 169 | 6.0 | 13.0 | 0.00 | 0.00 | 0.00 | 11 | 984.2 |
| 20260510000029 | 91 | 188 | 8.0 | 13.0 | 0.00 | 0.00 | 0.00 | 11 | 984.4 |
| 20260509234536 | 91 | 227 | 12.0 | 24.0 | 0.00 | 0.00 | 0.00 | 11 | 984.5 |
| 20260509233026 | 91 | 225 | 12.0 | 17.0 | 0.00 | 0.00 | 0.00 | 11 | 984.6 |
| 20260509231528 | 91 | 275 | 8.0 | 18.0 | 0.00 | 0.00 | 0.00 | 11 | 984.6 |
| 20260509230024 | 91 | 228 | 16.0 | 24.0 | 0.00 | 0.00 | 0.00 | 11 | 984.7 |
| 20260509224522 | 91 | 221 | 8.0 | 18.0 | 0.00 | 0.00 | 0.00 | 11 | 984.9 |
| 20260509223036 | 91 | 246 | 7.0 | 17.0 | 0.00 | 0.00 | 0.00 | 11 | 985.1 |
| 20260509221535 | 91 | 223 | 9.0 | 18.0 | 0.00 | 0.00 | 0.00 | 12 | 985.2 |
| 20260509220037 | 91 | 225 | 9.0 | 15.0 | 0.00 | 0.00 | 0.00 | 12 | 985.4 |
| 20260509214534 | 91 | 198 | 7.0 | 14.0 | 0.00 | 0.00 | 0.00 | 12 | 985.5 |
| 20260509213029 | 91 | 221 | 12.0 | 18.0 | 0.00 | 0.00 | 0.00 | 12 | 985.9 |
| 20260509211526 | 91 | 252 | 18.0 | 23.0 | 0.00 | 0.00 | 0.00 | 12 | 986.1 |
| 20260509210124 | 90 | 244 | 14.0 | 22.0 | 0.00 | 0.00 | 0.00 | 13 | 986.5 |
| 20260509204520 | 89 | 229 | 9.0 | 15.0 | 0.00 | 0.00 | 0.00 | 13 | 986.9 |
| 20260509203011 | 89 | 221 | 17.0 | 24.0 | 0.00 | 0.00 | 0.00 | 13 | 987.1 |
| 20260509201508 | 89 | 228 | 11.0 | 26.0 | 0.00 | 0.00 | 0.00 | 13 | 987.4 |
| 20260509200005 | 88 | 221 | 14.0 | 22.0 | 0.00 | 0.00 | 0.00 | 14 | 987.5 |
| 20260509194504 | 88 | 200 | 11.0 | 20.0 | 0.00 | 0.00 | 0.00 | 14 | 987.8 |
| 20260509193007 | 87 | 209 | 11.0 | 22.0 | 0.00 | 0.00 | 0.00 | 14 | 988.1 |
| 20260509191507 | 88 | 225 | 20.0 | 26.0 | 0.00 | 0.00 | 0.00 | 15 | 988.3 |
| 20260509190005 | 86 | 203 | 11.0 | 22.0 | 0.00 | 0.00 | 0.00 | 16 | 988.4 |
| 20260509184704 | 86 | 212 | 14.0 | 22.0 | 0.00 | 0.00 | 0.00 | 16 | 988.7 |
| 20260509183012 | 86 | 225 | 18.0 | 25.0 | 0.00 | 0.00 | 0.00 | 16 | 989.0 |
| 20260509181510 | 85 | 178 | 13.0 | 22.0 | 0.00 | 0.00 | 0.00 | 18 | 989.1 |
| 20260509180007 | 84 | 207 | 13.0 | 21.0 | 0.00 | 0.00 | 0.00 | 19 | 989.4 |
| 20260509174505 | 84 | 188 | 12.0 | 21.0 | 0.00 | 0.00 | 0.00 | 20 | 989.7 |
| 20260509173038 | 84 | 210 | 8.0 | 19.0 | 0.00 | 0.00 | 0.00 | 21 | 989.8 |
| 20260509171537 | 83 | 171 | 12.0 | 18.0 | 0.00 | 0.00 | 0.00 | 22 | 989.9 |
| 20260509170032 | 82 | 210 | 13.0 | 19.0 | 0.00 | 0.00 | 0.00 | 23 | 990.1 |
| 20260509164530 | 81 | 208 | 11.0 | 19.0 | 0.00 | 0.00 | 0.00 | 24 | 990.2 |
| 20260509163045 | 80 | 194 | 10.0 | 15.0 | 0.00 | 0.00 | 0.00 | 25 | 990.3 |
| 20260509161535 | 79 | 180 | 10.0 | 15.0 | 0.00 | 0.00 | 0.00 | 26 | 990.4 |
| 20260509160035 | 79 | 178 | 10.0 | 17.0 | 0.00 | 0.00 | 0.00 | 25 | 990.4 |
| 20260509154540 | 78 | 202 | 10.0 | 17.0 | 0.00 | 0.00 | 0.00 | 26 | 990.5 |
| 20260509153025 | 77 | 196 | 11.0 | 17.0 | 0.00 | 0.00 | 0.00 | 27 | 990.5 |
| 20260509151522 | 75 | 212 | 11.0 | 17.0 | 0.00 | 0.00 | 0.00 | 30 | 990.6 |
| 20260509150022 | 74 | 209 | 8.0 | 13.0 | 0.00 | 0.00 | 0.00 | 33 | 990.8 |
| 20260509144512 | 72 | 188 | 7.0 | 11.0 | 0.00 | 0.00 | 0.00 | 35 | 990.8 |
| 20260509143028 | 71 | 165 | 13.0 | 17.0 | 0.00 | 0.00 | 0.00 | 38 | 990.8 |